Cedar, MN (55011)

6:24 AM CDT on September 02, 2015 (GMT -0500)
Crooked Brook | | Change Station
CLOSE
Current Station
Personal Weather Station
Location: East Bethel, MN
Elevation: 909 ft
Nearby Weather Stations

Elev 909 ft 45.33 °N, 93.26 °W | Updated 22 seconds ago

Thunderstorm
Thunderstorm
66.7 °F
Feels Like 66.7 °F
N
0.0
Wind Variable Wind from ESE
Gusts 0.0 mph

Today
High -- | Low -- °F
--% Chance of Precip.
Yesterday
High -- | Low -- °F
Precip. -- in
6:35 AM 7:48 PM
Waning Gibbous, 81% visible
Pressure 29.91 in
Visibility 7.0 miles
Clouds Scattered Clouds 1900 ft
Scattered Clouds 6500 ft
Overcast 10000 ft
Dew Point 66 °F
Humidity 99%
Rainfall 0.56 in
Snow Depth Not available.
UV 0 out of 12
Pollen 9.20 out of 12
Air Quality Not available.
Flu Activity Not available.
METAR KANE 021114Z AUTO 00000KT 7SM -RA SCT019 SCT065 OVC100 21/21 A2991 RMK AO2 P0001
Pressure 29.91 in
Visibility 7.0 miles
Clouds Scattered Clouds 1900 ft
Scattered Clouds 6500 ft
Overcast 10000 ft
Dew Point 66 °F
Humidity 99%
Rainfall 0.56 in
Snow Depth Not available.
UV 0 out of 12
Pollen 9.20 out of 12
Air Quality Not available.
Flu Activity Not available.
METAR KANE 021114Z AUTO 00000KT 7SM -RA SCT019 SCT065 OVC100 21/21 A2991 RMK AO2 P0001

10-Day Weather Forecast

×

Almanac

Astronomy

Sep. 02, 2015 Rise Set
Actual Time
Civil Twilight
Nautical Twilight
Astronomical Twilight
Moon
Length of Visible Light
Length of Day
Tomorrow will be .
, % of the Moon is Illuminated

Today's Extremes

State Highs State Lows

Community

WunderPhotos

Upload Photos

1,851,736 photos uploaded!

WunderBlogs® & News

Nearby

Air Quality

  Air Quality AQ Index Pollutant
Not available.

Snow Depth

Station Depth Elevation

Earthquake Activity

City Distance Mag. Time & Date
Minimum magnitude displayed is 2.5.

Coastal Water Temperatures

Place Temperature

Stations

Nearby Weather Stations

Station Location Temp. Windchill Dew Point Humidity Wind Precip. Elev Updated Type